Wurruk, Australia
Current Conditions -  °F | °C
As of 12:30 PM on Thursday 23 Oct 2014 (Local Time) from YMEN Reporting Station
Overcast Overcast  
Wind Chill: 61°   Ceiling: 1300
Heat Index: 61°   Visibility: 6mi
Dew Point: 55°   Wind: 10mph
Humidity: 82%   Direction: 190°S
Pressure: 30.09"   Gusts: NA
Location:  38.11°S, 147.04°E
Report Text: YMEN 230130Z AUTO 19009KT 9999 // OVC013 16/13 Q1019
Loading
Personal Weather Stations






























Interactive Weather Map
Tropical Storm Tracking
New forecast layout! Learn more

10-Day Weather Forecast

Advertisements
Track Severe Weather on mobile